< < Back
Terminal Aerodrome Forecast


Current Version              Previous Versions:   1  2  3  4  5  6  7  8  9  

Terminal Aerodrome Forecast

865
FTUS42 KILM 311123
TAFFLO
TAF
KFLO 311123Z 3112/0112 02006KT 6SM BR BKN004 BKN010 BKN035
      TEMPO 3112/3115 3SM BR SCT004 BKN015
     FM311500 03007KT P6SM VCSH SCT020 BKN100
      TEMPO 3115/3117 BKN020
     FM010200 VRB03KT P6SM SCT050 OVC100
     FM010800 01004KT 4SM BR BKN003=

Latest METAR

156
SAUS70 KWBC 311400 RRL
MTRFLO
METAR KFLO 311353Z 01011KT 10SM BKN010 BKN019 BKN024 26/21 A2995 RMK AO2
SLP139 T02560211


USA.gov is the U.S. government's official web portal to all federal, state and local government web resources and services.